Time;durP1;ratioP1;P1;durP2;ratioP2;P2;SDS_P1;SDS_P2;PMS_P1;PMS_P2;Temp;Humidity;BMP_temperature;BMP_pressure;BME280_temperature;BME280_humidity;BME280_pressure;Samples;Min_cycle;Max_cycle;Signal;HPM_P1;HPM_P2
2023/10/08 00:00:43;;;;;;;;;6.67;6.67;;;;;;;;5050035;28;10039;-82
2023/10/08 00:03:13;;;;;;;;;9.00;8.00;;;;;;;;5050719;28;9182;-82
2023/10/08 00:05:40;;;;;;;;;7.67;7.67;;;;;;;;5050249;28;9250;-82
2023/10/08 00:08:09;;;;;;;;;10.00;9.00;;;;;;;;5049750;28;10075;-81
2023/10/08 00:10:37;;;;;;;;;7.33;7.33;;;;;;;;5049153;28;10248;-82
2023/10/08 00:13:09;;;;;;;;;11.33;7.67;;;;;;;;5049136;28;9373;-81
2023/10/08 00:15:37;;;;;;;;;6.00;6.00;;;;;;;;5050024;28;9352;-81
2023/10/08 00:18:11;;;;;;;;;9.00;9.00;;;;;;;;5049489;28;9251;-81
2023/10/08 00:20:47;;;;;;;;;7.67;7.67;;;;;;;;5050196;28;9305;-83
2023/10/08 00:23:18;;;;;;;;;7.67;7.67;;;;;;;;5048381;28;9190;-81
2023/10/08 00:25:47;;;;;;;;;7.00;7.00;;;;;;;;5050840;28;9202;-81
2023/10/08 00:28:14;;;;;;;;;8.00;8.00;;;;;;;;5050149;28;9297;-82
2023/10/08 00:30:42;;;;;;;;;10.00;10.00;;;;;;;;5049378;28;10043;-82
2023/10/08 00:33:11;;;;;;;;;7.00;7.00;;;;;;;;5049574;28;9322;-82
2023/10/08 00:35:41;;;;;;;;;8.33;8.33;;;;;;;;5050967;28;10029;-81
2023/10/08 00:38:14;;;;;;;;;8.33;8.33;;;;;;;;5049441;28;9432;-81
2023/10/08 00:40:45;;;;;;;;;8.75;8.00;;;;;;;;5050856;28;9307;-81
2023/10/08 00:43:27;;;;;;;;;10.50;9.00;;;;;;;;5048946;28;9394;-81
2023/10/08 00:45:54;;;;;;;;;11.33;9.00;;;;;;;;5049134;28;9401;-82
2023/10/08 00:48:28;;;;;;;;;10.67;9.00;;;;;;;;5049565;28;9422;-81
2023/10/08 00:51:10;;;;;;;;;7.25;7.25;;;;;;;;5049120;28;9413;-81
2023/10/08 00:53:39;;;;;;;;;10.50;10.50;;;;;;;;5049421;28;10189;-80
2023/10/08 00:56:13;;;;;;;;;10.75;6.25;;;;;;;;5049437;28;9479;-80
2023/10/08 00:58:45;;;;;;;;;8.00;8.00;;;;;;;;5048520;28;9408;-81
2023/10/08 01:01:16;;;;;;;;;7.67;7.33;;;;;;;;5048131;28;9304;-81
2023/10/08 01:03:45;;;;;;;;;7.67;7.67;;;;;;;;5048426;28;9410;-81
2023/10/08 01:06:14;;;;;;;;;9.00;9.00;;;;;;;;5050011;28;9448;-80
2023/10/08 01:08:47;;;;;;;;;9.67;8.33;;;;;;;;5052454;28;10307;-83
2023/10/08 01:11:19;;;;;;;;;4.33;4.00;;;;;;;;5050006;28;9398;-82
2023/10/08 01:13:46;;;;;;;;;9.33;9.33;;;;;;;;5048632;28;9412;-81
2023/10/08 01:16:15;;;;;;;;;11.00;9.00;;;;;;;;5049536;28;9334;-81
2023/10/08 01:18:50;;;;;;;;;9.67;9.67;;;;;;;;5049170;28;9406;-80
2023/10/08 01:21:33;;;;;;;;;9.33;9.33;;;;;;;;5047559;28;9408;-81
2023/10/08 01:24:07;;;;;;;;;9.67;9.67;;;;;;;;5049346;28;9467;-81
2023/10/08 01:26:38;;;;;;;;;16.00;13.00;;;;;;;;5049079;28;9414;-81
2023/10/08 01:29:09;;;;;;;;;10.33;10.33;;;;;;;;5050110;28;9441;-80
2023/10/08 01:31:37;;;;;;;;;11.25;11.25;;;;;;;;5050837;28;9314;-81
2023/10/08 01:34:07;;;;;;;;;14.00;13.00;;;;;;;;5051239;28;9413;-82
2023/10/08 01:36:36;;;;;;;;;15.67;14.00;;;;;;;;5051654;28;9520;-81
2023/10/08 01:39:06;;;;;;;;;10.00;10.00;;;;;;;;5052462;28;9581;-80
2023/10/08 01:41:33;;;;;;;;;9.00;9.00;;;;;;;;5050758;28;9256;-80
2023/10/08 01:44:07;;;;;;;;;14.00;9.67;;;;;;;;5048755;28;9401;-81
2023/10/08 01:46:36;;;;;;;;;15.67;15.67;;;;;;;;5047871;28;9328;-81
2023/10/08 01:49:04;;;;;;;;;12.33;11.00;;;;;;;;5048264;28;10080;-81
2023/10/08 01:51:38;;;;;;;;;16.67;16.33;;;;;;;;5047653;28;10299;-81
2023/10/08 01:54:11;;;;;;;;;12.00;12.00;;;;;;;;5048167;28;9404;-82
2023/10/08 01:56:42;;;;;;;;;15.33;11.00;;;;;;;;5048073;28;9349;-81
2023/10/08 01:59:11;;;;;;;;;9.67;9.00;;;;;;;;5048470;28;9377;-81
2023/10/08 02:01:39;;;;;;;;;19.00;12.00;;;;;;;;5041766;28;9157;-81
2023/10/08 02:04:12;;;;;;;;;13.00;11.00;;;;;;;;5047978;28;9142;-81
2023/10/08 02:06:40;;;;;;;;;10.33;10.33;;;;;;;;5047756;28;9113;-81
2023/10/08 02:09:09;;;;;;;;;11.00;11.00;;;;;;;;5048067;28;9194;-81
2023/10/08 02:11:49;;;;;;;;;13.33;13.00;;;;;;;;5047649;28;9304;-82
2023/10/08 02:14:17;;;;;;;;;14.00;13.33;;;;;;;;5047757;28;9254;-81
2023/10/08 02:16:44;;;;;;;;;11.00;9.67;;;;;;;;5047662;28;9332;-81
2023/10/08 02:19:12;;;;;;;;;13.00;13.00;;;;;;;;5047604;28;9414;-81
2023/10/08 02:21:46;;;;;;;;;12.00;12.00;;;;;;;;5042964;28;9393;-81
2023/10/08 02:24:14;;;;;;;;;12.33;12.33;;;;;;;;5044946;28;9332;-81
2023/10/08 02:26:42;;;;;;;;;15.00;15.00;;;;;;;;5039608;28;9250;-81
2023/10/08 02:29:11;;;;;;;;;16.25;16.25;;;;;;;;5046990;28;9422;-81
2023/10/08 02:31:39;;;;;;;;;15.75;15.00;;;;;;;;5041902;28;9566;-82
2023/10/08 02:34:08;;;;;;;;;14.50;13.75;;;;;;;;5049606;28;10264;-80
2023/10/08 02:36:37;;;;;;;;;9.33;8.00;;;;;;;;5051518;28;9485;-81
2023/10/08 02:39:13;;;;;;;;;14.25;14.25;;;;;;;;5052300;28;9605;-81
2023/10/08 02:41:42;;;;;;;;;15.67;15.67;;;;;;;;5051572;28;9447;-81
2023/10/08 02:44:11;;;;;;;;;10.00;10.00;;;;;;;;5051410;28;9472;-81
2023/10/08 02:46:40;;;;;;;;;14.67;13.00;;;;;;;;5051048;28;9513;-80
2023/10/08 02:49:11;;;;;;;;;12.00;11.00;;;;;;;;5051387;28;9414;-81
2023/10/08 02:51:40;;;;;;;;;16.50;16.50;;;;;;;;5051808;28;9351;-81
2023/10/08 02:54:16;;;;;;;;;17.00;14.75;;;;;;;;5051572;28;9477;-81
2023/10/08 02:56:46;;;;;;;;;14.00;14.00;;;;;;;;5050514;28;9558;-82
2023/10/08 02:59:14;;;;;;;;;13.50;11.25;;;;;;;;5049732;28;9491;-80
2023/10/08 03:01:42;;;;;;;;;14.25;13.75;;;;;;;;5050261;28;9548;-81
2023/10/08 03:04:17;;;;;;;;;14.75;14.75;;;;;;;;5051147;28;9471;-81
2023/10/08 03:06:49;;;;;;;;;12.75;11.25;;;;;;;;5051535;28;9639;-81
2023/10/08 03:09:20;;;;;;;;;17.25;14.50;;;;;;;;5051823;28;9570;-80
2023/10/08 03:11:49;;;;;;;;;16.50;15.00;;;;;;;;5051669;28;9555;-80
2023/10/08 03:14:21;;;;;;;;;18.50;15.00;;;;;;;;5052416;28;9474;-81
2023/10/08 03:16:50;;;;;;;;;14.00;14.00;;;;;;;;5053096;28;9686;-80
2023/10/08 03:19:19;;;;;;;;;13.25;13.25;;;;;;;;5054106;28;9613;-81
2023/10/08 03:21:51;;;;;;;;;14.25;14.25;;;;;;;;5054217;28;9692;-80
2023/10/08 03:24:37;;;;;;;;;16.00;16.00;;;;;;;;5054266;28;9793;-80
2023/10/08 03:27:15;;;;;;;;;18.50;16.00;;;;;;;;5054878;28;9846;-80
2023/10/08 03:29:43;;;;;;;;;13.25;12.25;;;;;;;;5052547;28;9697;-80
2023/10/08 03:32:15;;;;;;;;;16.00;12.75;;;;;;;;5051924;28;9676;-80
2023/10/08 03:34:46;;;;;;;;;13.75;13.75;;;;;;;;5050736;28;10681;-80
2023/10/08 03:37:19;;;;;;;;;14.50;12.75;;;;;;;;5050821;28;9702;-81
2023/10/08 03:40:00;;;;;;;;;15.75;11.50;;;;;;;;5050467;28;9873;-81
2023/10/08 03:42:34;;;;;;;;;12.50;12.50;;;;;;;;5049857;28;9789;-81
2023/10/08 03:45:10;;;;;;;;;18.75;18.75;;;;;;;;5049657;28;9760;-81
2023/10/08 03:47:38;;;;;;;;;12.25;12.25;;;;;;;;5042482;28;9796;-82
2023/10/08 03:50:10;;;;;;;;;12.50;12.50;;;;;;;;5050050;28;9841;-80
2023/10/08 03:52:43;;;;;;;;;16.25;15.25;;;;;;;;5049503;28;9618;-80
2023/10/08 03:55:21;;;;;;;;;13.75;11.25;;;;;;;;5049883;28;10695;-81
2023/10/08 03:57:56;;;;;;;;;17.75;14.75;;;;;;;;5048301;28;9988;-81
2023/10/08 04:00:31;;;;;;;;;14.00;14.00;;;;;;;;5049126;28;9845;-80
2023/10/08 04:03:01;;;;;;;;;15.00;15.00;;;;;;;;5037742;28;9798;-80
2023/10/08 04:05:33;;;;;;;;;18.75;15.50;;;;;;;;5049197;28;9919;-81
2023/10/08 04:08:24;;;;;;;;;14.00;13.25;;;;;;;;5048978;28;9999;-81
2023/10/08 04:11:22;;;;;;;;;15.00;15.00;;;;;;;;5048748;28;10282;-81
2023/10/08 04:13:51;;;;;;;;;16.75;16.75;;;;;;;;5048858;28;9890;-81
2023/10/08 04:16:20;;;;;;;;;16.00;16.00;;;;;;;;5048836;28;10226;-81
2023/10/08 04:18:50;;;;;;;;;13.00;12.00;;;;;;;;5048444;28;10035;-82
2023/10/08 04:21:20;;;;;;;;;15.50;15.50;;;;;;;;5049450;28;10152;-81
2023/10/08 04:23:51;;;;;;;;;18.50;15.75;;;;;;;;5048267;28;10792;-82
2023/10/08 04:26:23;;;;;;;;;14.25;14.25;;;;;;;;5049234;28;9949;-80
2023/10/08 04:28:57;;;;;;;;;18.50;17.00;;;;;;;;5047728;28;10046;-81
2023/10/08 04:31:28;;;;;;;;;15.00;14.00;;;;;;;;5047689;28;10007;-80
2023/10/08 04:34:00;;;;;;;;;19.25;15.00;;;;;;;;5037428;28;10083;-81
2023/10/08 04:36:27;;;;;;;;;14.75;14.75;;;;;;;;5048614;28;10187;-81
2023/10/08 04:39:02;;;;;;;;;15.00;14.00;;;;;;;;5047684;28;10003;-81
2023/10/08 04:41:29;;;;;;;;;16.25;16.25;;;;;;;;5048356;28;10169;-80
2023/10/08 04:44:02;;;;;;;;;13.75;13.75;;;;;;;;5048453;28;10466;-81
2023/10/08 04:46:46;;;;;;;;;14.50;12.75;;;;;;;;5048548;28;10073;-81
2023/10/08 04:49:26;;;;;;;;;14.00;13.75;;;;;;;;5048404;28;10056;-80
2023/10/08 04:51:56;;;;;;;;;12.75;11.75;;;;;;;;5038693;28;10185;-81
2023/10/08 04:54:29;;;;;;;;;14.00;14.00;;;;;;;;5048835;28;10017;-81
2023/10/08 04:56:58;;;;;;;;;12.00;12.00;;;;;;;;5048930;28;10284;-76
2023/10/08 04:59:33;;;;;;;;;14.50;14.50;;;;;;;;5048307;28;10264;-75
2023/10/08 05:02:19;;;;;;;;;10.75;10.75;;;;;;;;5053855;28;10283;-78
2023/10/08 05:04:56;;;;;;;;;14.25;14.25;;;;;;;;5039125;28;10304;-77
2023/10/08 05:07:40;;;;;;;;;16.50;16.00;;;;;;;;5049595;28;10168;-80
2023/10/08 05:10:12;;;;;;;;;14.75;14.75;;;;;;;;5051062;28;10197;-78
2023/10/08 05:12:46;;;;;;;;;16.25;16.25;;;;;;;;5052351;28;10333;-78
2023/10/08 05:15:33;;;;;;;;;16.25;15.75;;;;;;;;5048551;28;10248;-78
2023/10/08 05:18:13;;;;;;;;;15.75;13.75;;;;;;;;5048165;28;10031;-76
2023/10/08 05:20:59;;;;;;;;;11.50;11.50;;;;;;;;5047772;28;11006;-79
2023/10/08 05:26:20;;;;;;;;;15.25;15.25;;;;;;;;5048247;28;10028;-76
2023/10/08 05:29:00;;;;;;;;;6.25;5.75;;;;;;;;5045798;28;10025;-79
2023/10/08 05:31:46;;;;;;;;;15.50;15.50;;;;;;;;5047528;28;10193;-78
2023/10/08 05:34:32;;;;;;;;;13.75;13.75;;;;;;;;5046914;28;10257;-79
2023/10/08 05:37:31;;;;;;;;;13.00;13.00;;;;;;;;5046868;28;10087;-79
2023/10/08 05:40:21;;;;;;;;;6.25;6.00;;;;;;;;5046853;28;10180;-76
2023/10/08 05:42:49;;;;;;;;;13.00;13.00;;;;;;;;5046966;28;10287;-79
2023/10/08 05:45:29;;;;;;;;;14.25;14.25;;;;;;;;5047778;28;10363;-79
2023/10/08 05:48:14;;;;;;;;;14.75;14.75;;;;;;;;5047176;28;10277;-78
2023/10/08 05:50:55;;;;;;;;;16.50;14.50;;;;;;;;5047839;28;10304;-77
2023/10/08 05:53:43;;;;;;;;;13.25;12.25;;;;;;;;5036284;28;10424;-77
2023/10/08 05:56:28;;;;;;;;;12.00;11.75;;;;;;;;5047012;28;10290;-76
2023/10/08 05:59:14;;;;;;;;;12.50;12.50;;;;;;;;5046693;28;10184;-80
2023/10/08 06:01:45;;;;;;;;;15.00;15.00;;;;;;;;5037472;28;10012;-77
2023/10/08 06:04:42;;;;;;;;;13.00;13.00;;;;;;;;5047761;28;10100;-80
2023/10/08 06:07:20;;;;;;;;;15.00;15.00;;;;;;;;5046950;28;10100;-77
2023/10/08 06:10:01;;;;;;;;;12.50;12.50;;;;;;;;5047453;28;10300;-78
2023/10/08 06:12:30;;;;;;;;;12.75;12.75;;;;;;;;5047119;28;10117;-78
2023/10/08 06:15:07;;;;;;;;;12.25;12.25;;;;;;;;5047381;28;10239;-78
2023/10/08 06:20:26;;;;;;;;;13.00;13.00;;;;;;;;5047399;28;10091;-77
2023/10/08 06:23:01;;;;;;;;;13.50;13.00;;;;;;;;5047111;28;10047;-80
2023/10/08 06:25:30;;;;;;;;;15.25;15.00;;;;;;;;5045788;28;10190;-77
2023/10/08 06:27:59;;;;;;;;;13.50;13.50;;;;;;;;5046986;28;10293;-83
2023/10/08 06:30:29;;;;;;;;;15.75;15.75;;;;;;;;5046379;28;10788;-77
2023/10/08 06:32:57;;;;;;;;;11.50;11.50;;;;;;;;5046783;28;10862;-77
2023/10/08 06:35:27;;;;;;;;;18.25;15.25;;;;;;;;5046238;28;10025;-74
2023/10/08 06:37:59;;;;;;;;;15.75;15.75;;;;;;;;5045579;28;10100;-79
2023/10/08 06:40:42;;;;;;;;;18.50;16.75;;;;;;;;5047256;28;10882;-80
2023/10/08 06:43:16;;;;;;;;;19.25;17.00;;;;;;;;5047604;28;10010;-75
2023/10/08 06:45:44;;;;;;;;;17.75;16.00;;;;;;;;5048758;28;10145;-74
2023/10/08 06:48:18;;;;;;;;;17.25;16.00;;;;;;;;5050141;28;10350;-75
2023/10/08 06:50:48;;;;;;;;;18.75;15.00;;;;;;;;5049486;28;9889;-74
2023/10/08 06:53:17;;;;;;;;;19.00;14.25;;;;;;;;5049870;28;9868;-77
2023/10/08 06:55:47;;;;;;;;;16.25;14.00;;;;;;;;5049901;28;10059;-75
2023/10/08 06:58:18;;;;;;;;;11.25;11.25;;;;;;;;5037538;28;9905;-75
2023/10/08 07:00:48;;;;;;;;;16.50;15.75;;;;;;;;5046244;28;9877;-80
2023/10/08 07:03:17;;;;;;;;;15.25;15.25;;;;;;;;5047534;28;9932;-81
2023/10/08 07:05:57;;;;;;;;;14.00;13.50;;;;;;;;5047140;28;9864;-77
2023/10/08 07:08:42;;;;;;;;;13.25;13.25;;;;;;;;5047723;28;9870;-81
2023/10/08 07:11:11;;;;;;;;;17.50;16.75;;;;;;;;5034744;28;9934;-75
2023/10/08 07:13:40;;;;;;;;;16.50;15.25;;;;;;;;5046498;28;10611;-85
2023/10/08 07:16:12;;;;;;;;;18.75;17.00;;;;;;;;5047028;28;9694;-75
2023/10/08 07:18:39;;;;;;;;;21.00;21.00;;;;;;;;5046311;28;10609;-83
2023/10/08 07:21:44;;;;;;;;;25.25;22.50;;;;;;;;5050803;28;9789;-78
2023/10/08 07:24:15;;;;;;;;;21.75;20.75;;;;;;;;5039741;28;9784;-78
2023/10/08 07:26:46;;;;;;;;;17.00;17.00;;;;;;;;5049172;28;9656;-79
2023/10/08 07:29:16;;;;;;;;;21.00;19.00;;;;;;;;5050543;28;9642;-79
2023/10/08 07:31:48;;;;;;;;;21.25;19.25;;;;;;;;5049885;28;9587;-82
2023/10/08 07:34:25;;;;;;;;;21.50;21.50;;;;;;;;5049560;28;9550;-78
2023/10/08 07:36:55;;;;;;;;;19.00;19.00;;;;;;;;5049037;28;9517;-77
2023/10/08 07:39:33;;;;;;;;;29.75;29.50;;;;;;;;5050213;28;10227;-80
2023/10/08 07:42:05;;;;;;;;;18.33;18.00;;;;;;;;5038053;28;9826;-79
2023/10/08 07:44:35;;;;;;;;;23.33;21.67;;;;;;;;5049818;28;10120;-77
2023/10/08 07:47:04;;;;;;;;;19.67;19.33;;;;;;;;5050279;28;9282;-80
2023/10/08 07:49:37;;;;;;;;;22.33;18.67;;;;;;;;5050015;28;9929;-77
2023/10/08 07:52:06;;;;;;;;;18.00;18.00;;;;;;;;5050380;28;9168;-84
2023/10/08 07:54:36;;;;;;;;;18.00;18.00;;;;;;;;5050251;28;9130;-74
2023/10/08 07:57:09;;;;;;;;;20.00;18.00;;;;;;;;5048685;28;9100;-75
2023/10/08 07:59:38;;;;;;;;;21.67;21.67;;;;;;;;5049612;28;8940;-80
2023/10/08 08:02:09;;;;;;;;;19.33;19.33;;;;;;;;5049382;28;8892;-78
2023/10/08 08:04:40;;;;;;;;;18.00;18.00;;;;;;;;5049929;28;9062;-75
2023/10/08 08:07:15;;;;;;;;;18.00;18.00;;;;;;;;5049093;28;8884;-77
2023/10/08 08:09:48;;;;;;;;;21.50;20.50;;;;;;;;5036796;28;8877;-81
2023/10/08 08:12:15;;;;;;;;;21.00;19.50;;;;;;;;5047346;28;8842;-82
2023/10/08 08:14:42;;;;;;;;;19.00;19.00;;;;;;;;5049265;28;8988;-74
2023/10/08 08:17:14;;;;;;;;;21.00;21.00;;;;;;;;5049029;28;8887;-77
2023/10/08 08:19:47;;;;;;;;;22.00;16.50;;;;;;;;5049474;28;8865;-78
2023/10/08 08:22:20;;;;;;;;;20.75;19.00;;;;;;;;5048866;28;8885;-78
2023/10/08 08:24:51;;;;;;;;;17.00;17.00;;;;;;;;5049431;28;8845;-77
2023/10/08 08:27:25;;;;;;;;;18.00;16.75;;;;;;;;5051243;28;8837;-78
2023/10/08 08:29:55;;;;;;;;;19.50;19.00;;;;;;;;5053469;28;8891;-79
2023/10/08 08:32:23;;;;;;;;;15.75;15.75;;;;;;;;5041088;28;8956;-78
2023/10/08 08:34:50;;;;;;;;;19.50;17.25;;;;;;;;5051385;28;8906;-74
2023/10/08 08:37:22;;;;;;;;;17.75;16.25;;;;;;;;5054066;28;8837;-80
2023/10/08 08:39:49;;;;;;;;;20.00;16.25;;;;;;;;5054864;28;8944;-78
2023/10/08 08:42:19;;;;;;;;;15.75;15.75;;;;;;;;5050064;28;8923;-76
2023/10/08 08:44:47;;;;;;;;;24.00;19.75;;;;;;;;5048171;28;8857;-77
2023/10/08 08:47:17;;;;;;;;;15.00;15.00;;;;;;;;5048675;28;8879;-74
2023/10/08 08:49:45;;;;;;;;;17.50;17.50;;;;;;;;5048679;28;8880;-77
2023/10/08 08:52:13;;;;;;;;;17.25;16.50;;;;;;;;5049723;28;9009;-84
2023/10/08 08:54:44;;;;;;;;;23.50;21.25;;;;;;;;5048553;28;8861;-77
2023/10/08 08:57:14;;;;;;;;;17.75;17.50;;;;;;;;5048554;28;8853;-74
2023/10/08 08:59:45;;;;;;;;;21.75;19.25;;;;;;;;5048812;28;8849;-80
2023/10/08 09:02:15;;;;;;;;;18.00;18.00;;;;;;;;5048674;28;8798;-76
2023/10/08 09:04:42;;;;;;;;;16.25;16.25;;;;;;;;5037598;28;8845;-86
2023/10/08 09:07:11;;;;;;;;;26.50;25.25;;;;;;;;5047847;28;8926;-86
2023/10/08 09:09:39;;;;;;;;;18.25;16.50;;;;;;;;5048483;28;8924;-89
2023/10/08 09:12:10;;;;;;;;;16.00;16.00;;;;;;;;5048950;28;8861;-81
2023/10/08 09:14:43;;;;;;;;;19.00;17.50;;;;;;;;5048833;28;9848;-80
2023/10/08 09:17:10;;;;;;;;;16.25;16.25;;;;;;;;5048491;28;8837;-80
2023/10/08 09:19:40;;;;;;;;;19.75;16.00;;;;;;;;5049028;28;8848;-82
2023/10/08 09:22:11;;;;;;;;;19.25;19.25;;;;;;;;5048329;28;8857;-84
2023/10/08 09:24:40;;;;;;;;;15.60;15.60;;;;;;;;5048439;28;8979;-81
2023/10/08 09:27:13;;;;;;;;;23.00;19.25;;;;;;;;5048101;28;8846;-78
2023/10/08 09:29:41;;;;;;;;;16.20;15.60;;;;;;;;5036200;28;8874;-82
2023/10/08 09:32:14;;;;;;;;;15.00;14.60;;;;;;;;5048157;28;8793;-79
2023/10/08 09:34:43;;;;;;;;;17.00;17.00;;;;;;;;5047449;28;9620;-81
2023/10/08 09:37:11;;;;;;;;;19.60;15.80;;;;;;;;5048049;28;8841;-77
2023/10/08 09:39:45;;;;;;;;;14.40;14.40;;;;;;;;5047827;28;8863;-81
2023/10/08 09:42:14;;;;;;;;;18.80;17.40;;;;;;;;5047211;28;8984;-77
2023/10/08 09:44:43;;;;;;;;;15.40;15.20;;;;;;;;5048250;28;8873;-75
2023/10/08 09:47:11;;;;;;;;;15.60;14.40;;;;;;;;5048077;28;8983;-77
2023/10/08 09:49:42;;;;;;;;;11.00;11.00;;;;;;;;5047180;28;8857;-74
2023/10/08 09:52:10;;;;;;;;;10.40;9.60;;;;;;;;5048309;28;8881;-80
2023/10/08 09:54:44;;;;;;;;;13.80;12.00;;;;;;;;5047398;28;8876;-80
2023/10/08 09:57:13;;;;;;;;;13.60;13.60;;;;;;;;5047494;28;8853;-74
2023/10/08 09:59:42;;;;;;;;;13.40;12.80;;;;;;;;5046752;28;8872;-76
2023/10/08 10:02:10;;;;;;;;;13.40;13.20;;;;;;;;5046986;28;8802;-78
2023/10/08 10:04:44;;;;;;;;;12.20;12.20;;;;;;;;5035390;28;8865;-79
2023/10/08 10:07:13;;;;;;;;;13.60;12.80;;;;;;;;5048141;28;9000;-78
2023/10/08 10:09:43;;;;;;;;;14.20;14.00;;;;;;;;5048606;28;8857;-78
2023/10/08 10:12:17;;;;;;;;;14.00;12.60;;;;;;;;5049205;28;8859;-78
2023/10/08 10:14:46;;;;;;;;;11.60;11.60;;;;;;;;5050165;28;8883;-78
2023/10/08 10:17:20;;;;;;;;;14.20;13.00;;;;;;;;5049536;28;8854;-77
2023/10/08 10:19:52;;;;;;;;;13.00;13.00;;;;;;;;5050409;28;8865;-77
2023/10/08 10:22:29;;;;;;;;;15.00;15.00;;;;;;;;5049544;28;8849;-78
2023/10/08 10:24:58;;;;;;;;;13.20;13.20;;;;;;;;5047980;28;8922;-79
2023/10/08 10:27:26;;;;;;;;;13.40;12.80;;;;;;;;5036625;28;8887;-82
2023/10/08 10:30:08;;;;;;;;;18.60;15.20;;;;;;;;5048015;28;8854;-84
2023/10/08 10:32:38;;;;;;;;;13.20;13.20;;;;;;;;5068800;28;8900;-87
2023/10/08 10:35:11;;;;;;;;;10.80;10.80;;;;;;;;5067301;28;8949;-81
2023/10/08 10:37:41;;;;;;;;;13.80;13.80;;;;;;;;5067229;28;8842;-78
2023/10/08 10:40:12;;;;;;;;;9.60;9.60;;;;;;;;5066775;28;9009;-79
2023/10/08 10:42:44;;;;;;;;;8.20;8.20;;;;;;;;5067175;28;8846;-81
2023/10/08 10:45:34;;;;;;;;;11.00;11.00;;;;;;;;5066890;28;8868;-77
2023/10/08 10:48:12;;;;;;;;;10.40;10.40;;;;;;;;5066559;28;8880;-80
2023/10/08 10:50:48;;;;;;;;;5.60;5.60;;;;;;;;5066731;28;8858;-77
2023/10/08 10:53:17;;;;;;;;;9.20;9.20;;;;;;;;5067696;28;8870;-79
2023/10/08 10:55:58;;;;;;;;;5.00;3.00;;;;;;;;5070317;28;9631;-81
2023/10/08 10:58:28;;;;;;;;;9.20;9.20;;;;;;;;5061363;28;8862;-79
2023/10/08 11:01:04;;;;;;;;;10.60;10.60;;;;;;;;5069962;28;8806;-77
2023/10/08 11:03:34;;;;;;;;;10.00;10.00;;;;;;;;5070611;28;8854;-79
2023/10/08 11:06:05;;;;;;;;;10.00;10.00;;;;;;;;5070373;28;8839;-80
2023/10/08 11:08:46;;;;;;;;;11.40;8.20;;;;;;;;5070729;28;8993;-79
2023/10/08 11:11:17;;;;;;;;;10.00;8.80;;;;;;;;5059406;28;8856;-79
2023/10/08 11:13:51;;;;;;;;;10.40;10.40;;;;;;;;5068777;28;8833;-77
2023/10/08 11:16:21;;;;;;;;;6.40;6.40;;;;;;;;5070181;28;9668;-77
2023/10/08 11:18:57;;;;;;;;;3.00;1.80;;;;;;;;5069968;28;8869;-81
2023/10/08 11:21:25;;;;;;;;;8.60;8.00;;;;;;;;5070018;28;9505;-74
2023/10/08 11:23:55;;;;;;;;;8.40;8.40;;;;;;;;5069654;28;8958;-76
2023/10/08 11:26:31;;;;;;;;;9.20;8.00;;;;;;;;5069950;28;8851;-76
2023/10/08 11:29:02;;;;;;;;;8.60;8.60;;;;;;;;5069605;28;8890;-76
2023/10/08 11:31:33;;;;;;;;;7.60;7.60;;;;;;;;5069300;28;8799;-76
2023/10/08 11:34:01;;;;;;;;;5.00;5.00;;;;;;;;5068525;28;9479;-76
2023/10/08 11:36:33;;;;;;;;;7.00;7.00;;;;;;;;5069496;28;8943;-76
2023/10/08 11:39:21;;;;;;;;;7.20;7.20;;;;;;;;5070050;28;8880;-75
2023/10/08 11:41:57;;;;;;;;;8.40;7.00;;;;;;;;5069308;28;8851;-76
2023/10/08 11:44:30;;;;;;;;;9.60;9.60;;;;;;;;5069538;28;8839;-75
2023/10/08 11:47:04;;;;;;;;;7.40;7.40;;;;;;;;5069886;28;8889;-75
2023/10/08 11:49:36;;;;;;;;;9.60;7.80;;;;;;;;5070106;28;8865;-76
2023/10/08 11:52:03;;;;;;;;;8.20;7.20;;;;;;;;5070468;28;8863;-75
2023/10/08 11:54:32;;;;;;;;;7.00;7.00;;;;;;;;5070133;28;8846;-76
2023/10/08 11:57:02;;;;;;;;;5.80;5.00;;;;;;;;5071841;28;8865;-75
2023/10/08 11:59:32;;;;;;;;;8.80;7.00;;;;;;;;5071890;28;8859;-75
2023/10/08 12:01:59;;;;;;;;;8.60;5.20;;;;;;;;5071859;28;8867;-75
2023/10/08 12:04:29;;;;;;;;;7.00;7.00;;;;;;;;5071886;28;8855;-76
2023/10/08 12:06:56;;;;;;;;;10.80;9.40;;;;;;;;5072393;28;8854;-77
2023/10/08 12:09:27;;;;;;;;;8.00;5.20;;;;;;;;5068785;28;8996;-82
2023/10/08 12:11:56;;;;;;;;;7.00;7.00;;;;;;;;5063650;28;8866;-76
2023/10/08 12:14:26;;;;;;;;;9.40;7.80;;;;;;;;5069553;28;8854;-75
2023/10/08 12:16:56;;;;;;;;;7.40;7.40;;;;;;;;5068797;28;8858;-76
2023/10/08 12:19:26;;;;;;;;;7.00;7.00;;;;;;;;5068912;28;9664;-76
2023/10/08 12:21:53;;;;;;;;;9.00;7.60;;;;;;;;5068476;28;8892;-75
2023/10/08 12:24:21;;;;;;;;;9.60;7.60;;;;;;;;5058959;28;9008;-76
2023/10/08 12:26:49;;;;;;;;;7.00;7.00;;;;;;;;5069085;28;8878;-77
2023/10/08 12:29:17;;;;;;;;;5.20;5.20;;;;;;;;5069645;28;8843;-75
2023/10/08 12:31:47;;;;;;;;;7.00;7.00;;;;;;;;5066920;28;8811;-77
2023/10/08 12:34:16;;;;;;;;;9.60;9.00;;;;;;;;5059135;28;8897;-75
2023/10/08 12:36:45;;;;;;;;;6.80;6.80;;;;;;;;5068244;28;8953;-74
2023/10/08 12:39:15;;;;;;;;;5.20;5.20;;;;;;;;5069094;28;9598;-75
2023/10/08 12:41:43;;;;;;;;;6.80;6.80;;;;;;;;5068012;28;8871;-77
2023/10/08 12:44:11;;;;;;;;;9.60;8.80;;;;;;;;5068709;28;8859;-76
2023/10/08 12:46:38;;;;;;;;;7.40;6.00;;;;;;;;5067683;28;8866;-75
2023/10/08 12:49:06;;;;;;;;;7.00;7.00;;;;;;;;5068642;28;9621;-75
2023/10/08 12:51:41;;;;;;;;;5.60;5.60;;;;;;;;5067402;28;8834;-75
2023/10/08 12:54:10;;;;;;;;;4.60;4.60;;;;;;;;5069743;28;8883;-73
2023/10/08 12:56:44;;;;;;;;;5.40;5.40;;;;;;;;5069259;28;8888;-79
2023/10/08 12:59:20;;;;;;;;;7.60;7.60;;;;;;;;5068591;28;8961;-78
2023/10/08 13:01:50;;;;;;;;;7.40;7.40;;;;;;;;5077754;28;8789;-81
2023/10/08 13:04:25;;;;;;;;;8.80;8.80;;;;;;;;5069727;28;8916;-79
2023/10/08 13:06:56;;;;;;;;;8.20;8.20;;;;;;;;5068864;28;8885;-83
2023/10/08 13:09:24;;;;;;;;;8.20;8.00;;;;;;;;5068088;28;8866;-79
2023/10/08 13:11:51;;;;;;;;;7.40;7.40;;;;;;;;5068290;28;8866;-81
2023/10/08 13:14:18;;;;;;;;;9.60;8.20;;;;;;;;5066790;28;9631;-80
2023/10/08 13:16:49;;;;;;;;;6.60;6.60;;;;;;;;5067446;28;9664;-80
2023/10/08 13:19:19;;;;;;;;;7.60;7.60;;;;;;;;5067785;28;9894;-76
2023/10/08 13:21:52;;;;;;;;;9.00;8.60;;;;;;;;5067897;28;8936;-78
2023/10/08 13:24:21;;;;;;;;;9.40;7.60;;;;;;;;5067594;28;9774;-79
2023/10/08 13:26:48;;;;;;;;;5.00;5.00;;;;;;;;5067353;28;8862;-78
2023/10/08 13:29:18;;;;;;;;;4.20;4.20;;;;;;;;5067644;28;8855;-76
2023/10/08 13:31:47;;;;;;;;;8.00;8.00;;;;;;;;5066959;28;8776;-79
2023/10/08 13:34:16;;;;;;;;;9.20;8.80;;;;;;;;5066966;28;8971;-75
2023/10/08 13:36:46;;;;;;;;;8.00;8.00;;;;;;;;5067943;28;8831;-79
2023/10/08 13:39:18;;;;;;;;;7.40;7.40;;;;;;;;5069994;28;8839;-78
2023/10/08 13:41:47;;;;;;;;;7.60;7.00;;;;;;;;5070401;28;8858;-79
2023/10/08 13:44:15;;;;;;;;;8.00;6.80;;;;;;;;5070316;28;8845;-78
2023/10/08 13:46:48;;;;;;;;;5.40;4.80;;;;;;;;5068671;28;8983;-77
2023/10/08 13:49:16;;;;;;;;;5.60;5.60;;;;;;;;5071499;28;8847;-75
2023/10/08 13:51:44;;;;;;;;;4.60;4.00;;;;;;;;5058669;28;8859;-82
2023/10/08 13:54:11;;;;;;;;;4.00;4.00;;;;;;;;5067667;28;8874;-78
2023/10/08 13:56:38;;;;;;;;;5.00;5.00;;;;;;;;5067886;28;9663;-79
2023/10/08 13:59:12;;;;;;;;;4.80;4.80;;;;;;;;5067787;28;8981;-79
2023/10/08 14:01:45;;;;;;;;;5.40;5.40;;;;;;;;5067839;28;8817;-82
2023/10/08 14:04:17;;;;;;;;;6.00;6.00;;;;;;;;5067530;28;8854;-78
2023/10/08 14:06:47;;;;;;;;;4.00;4.00;;;;;;;;5067573;28;9659;-78
2023/10/08 14:09:20;;;;;;;;;4.00;4.00;;;;;;;;5067279;28;8863;-78
2023/10/08 14:11:50;;;;;;;;;5.20;5.20;;;;;;;;5067451;28;8862;-76
2023/10/08 14:14:19;;;;;;;;;5.40;4.80;;;;;;;;5067028;28;8858;-77
2023/10/08 14:16:52;;;;;;;;;6.00;6.00;;;;;;;;5066789;28;8886;-77
2023/10/08 14:19:23;;;;;;;;;4.00;3.40;;;;;;;;5067325;28;9006;-77
2023/10/08 14:21:54;;;;;;;;;4.40;4.00;;;;;;;;5065106;28;8867;-75
2023/10/08 14:24:23;;;;;;;;;4.60;4.60;;;;;;;;5067138;28;8875;-80
2023/10/08 14:26:54;;;;;;;;;4.80;4.80;;;;;;;;5066468;28;8850;-80
2023/10/08 14:29:26;;;;;;;;;8.40;5.00;;;;;;;;5068962;28;8850;-76
2023/10/08 14:31:56;;;;;;;;;5.40;4.20;;;;;;;;5071155;28;9640;-80
2023/10/08 14:42:53;;;;;;;;;3.00;3.00;;;;;;;;5071420;28;8941;-82
2023/10/08 14:43:01;;;;;;;;;4.40;4.40;;;;;;;;5071261;28;8834;-82
2023/10/08 14:45:33;;;;;;;;;7.00;5.20;;;;;;;;5071248;28;8882;-81
2023/10/08 14:48:00;;;;;;;;;7.00;5.20;;;;;;;;5070290;28;8846;-80
2023/10/08 14:50:31;;;;;;;;;4.60;4.60;;;;;;;;5071718;28;8901;-85
2023/10/08 14:52:59;;;;;;;;;5.40;5.00;;;;;;;;5073370;28;8873;-84
2023/10/08 14:55:27;;;;;;;;;2.40;2.40;;;;;;;;5072421;28;8881;-81
2023/10/08 14:57:54;;;;;;;;;5.80;5.00;;;;;;;;5075335;28;8839;-84
2023/10/08 15:00:24;;;;;;;;;4.60;3.80;;;;;;;;5075221;28;8868;-79
2023/10/08 15:02:54;;;;;;;;;4.00;4.00;;;;;;;;5072583;28;8893;-83
2023/10/08 15:05:22;;;;;;;;;3.20;3.20;;;;;;;;5073343;28;8882;-79
2023/10/08 15:07:50;;;;;;;;;4.00;4.00;;;;;;;;5071836;28;8873;-79
2023/10/08 15:10:17;;;;;;;;;6.00;4.00;;;;;;;;5070744;28;8867;-80
2023/10/08 15:12:45;;;;;;;;;3.20;3.20;;;;;;;;5072847;28;8862;-87
2023/10/08 15:15:15;;;;;;;;;4.00;4.00;;;;;;;;5073189;28;8872;-85
2023/10/08 15:17:46;;;;;;;;;5.00;3.60;;;;;;;;5072810;28;8870;-86